Kezdőlap
METAR-TAF:

METAR-TAF

Repülőterek :

White Plains, New York, Amerikai Egyesült Államok

földrajzi szélesség: 41-04-01N, földrajzi hosszúság: 073-42-27W, magasság: 134 m

Jelenlegi meteorológiai megfigyelések

A jelentés 39 perccel ezelõtt készült, 16:56 UTC
Nyugat-délnyugati szél 5 kt
Hőmérséklet 9°C
Páratartalom 23%
Légköri nyomás 1021 hPa
Látótávolság: 16.1 km
Derült ég

METAR: KHPN 231656Z 25005KT 10SM CLR 09/M11 A3015 RMK AO2 SLP216 T00941106

Idő: 12:35 (17:35 UTC)

Előrejelzés

A jelentés 2 órával és 57 perccel ezelõtt készült, 14:38 UTC
Az előrejelzés 23-én 15 óra UTC és 24-én 12 óra UTC között érvényes
Nyugati szél 6 kt
Látótávolság: 10 km
Derült ég
23-én 1800 órától UTC szerint
Délnyugati szél 7 kt
Látótávolság: 10 km
Derült ég
24-én 0000 órától UTC szerint
Különbözõ irányokból fújó szél 3 kt
Látótávolság: 10 km
Derült ég

TAF: KHPN 231438Z 2315/2412 27006KT P6SM SKC FM231800 23007KT P6SM SKC FM240000 VRB03KT P6SM SKC AMD NOT SKED

Meteorológiai megfigyelések és előrejelzések több, mint 4000 repülőtéren (METAR és TAF jelentéseket).

A térképen piros és sárga pontok jelzik az elérhető meteorológiai állomásokat.

Mozgassa az egeret a pont fölött, hogy megjelenjen az állomás neve.

Azután kattintson az időjárási megfigyelések és előrejelzések megtekintéséhez.

A térkép megváltoztatása: kattintson a fekete keresztel jelölt zöld gombra ráközelítéshez, a vonallal jelölt zöld gombra távolításhoz, vagy a zöld nyilakra a szomszédos térképek eléréséhez.


METAR-TAF: